Flight Track Log - Related Links

Times and Time Zones

All times are in EDT time to prevent confusion due to time zone crossing. See the EJA848 flight status page for this flight to view local times or setup timezone preferences in your user account.

Time Position Orientation Groundspeed Altitude Reporting Facility
EDT Latitude Longitude Course Direction KTS MPH feet Rate Location/Type
Fri 08:33:06 PM 41.7667 -87.8167 270° West 191 220 2,900  Level Chicago TRACON
Fri 08:34:07 PM 41.7500 -87.9000 255° West 212 244 3,800 532 Climbing Chicago TRACON
Fri 08:35:10 PM 41.7417 -87.9767 262° West 216 249 4,000 960 Climbing Chicago Center
Fri 08:36:12 PM 41.7728 -88.0647 295° West 244 281 5,800 1,597 Climbing Chicago Center
Fri 08:37:14 PM 41.8031 -88.1592 293° West 273 314 7,300 2,855 Climbing Chicago Center
Fri 08:38:00 PM 41.7833 -88.5811 270° West  Level FlightAware Approximate
Fri 08:38:16 PM 41.8358 -88.2642 293° West 283 326 11,700  Level Chicago Center
Fri 08:39:19 PM 41.8747 -88.3850 293° West 355 409 14,700 2,880 Climbing Chicago Center
Fri 08:40:21 PM 41.9122 -88.5094 292° West 358 412 17,700 2,758 Climbing Chicago Center
Fri 08:41:23 PM 41.9469 -88.6394 290° West 363 418 20,400 2,274 Climbing Chicago Center
Fri 08:42:25 PM 41.9817 -88.7736 289° West 377 434 22,400 1,935 Climbing Chicago Center
Fri 08:43:27 PM 42.0150 -88.9114 288° West 389 448 24,400 2,129 Climbing Chicago Center
Fri 08:44:29 PM 42.0231 -89.0897 274° West 399 459 26,800 2,129 Climbing Chicago Center
Fri 08:45:31 PM 42.0631 -89.2300 291° West 417 480 28,800 1,968 Climbing Chicago Center
Fri 08:46:34 PM 42.1017 -89.3644 291° West 408 470 30,900 1,536 Climbing Chicago Center
Fri 08:47:36 PM 42.0931 -89.5153 266° West 405 466 32,000 1,306 Climbing Chicago Center
Fri 08:48:38 PM 42.0806 -89.7122 265° West 435 501 33,600 1,935 Climbing Chicago Center
Fri 08:49:40 PM 42.0733 -89.8653 266° West 419 482 36,000 1,161 Climbing Chicago Center
Fri 08:50:42 PM 42.0642 -89.9994 265° West 407 468 36,000  Level Chicago Center
Fri 08:51:44 PM 42.0533 -90.1853 266° West 413 475 36,000  Level Chicago Center
Fri 08:52:46 PM 42.0478 -90.3386 267° West 415 478 36,000  Level Chicago Center
Fri 08:53:49 PM 42.0111 -90.4789 251° West 404 465 36,000  Level Chicago Center
Fri 08:54:51 PM 41.9461 -90.6017 235° Southwest 403 464 36,000  Level Chicago Center
Fri 08:55:53 PM 41.8786 -90.7269 234° Southwest 411 473 36,000  Level Chicago Center
Fri 08:56:55 PM 41.8003 -90.8742 235° Southwest 410 472 36,000  Level Chicago Center
Fri 08:57:57 PM 41.7342 -90.9942 234° Southwest 406 467 36,000 576 Level Chicago Center
Fri 08:59:00 PM 41.6686 -91.1139 234° Southwest 404 465 37,200 960 Climbing Chicago Center
Fri 09:00:02 PM 41.6028 -91.2358 234° Southwest 406 467 38,000 387 Climbing Chicago Center
Fri 09:01:04 PM 41.5333 -91.3606 233° Southwest 416 479 38,000  Level Chicago Center
Fri 09:02:06 PM 41.4550 -91.5036 234° Southwest 405 466 38,000  Level Chicago Center
Fri 09:03:08 PM 41.3894 -91.6219 234° Southwest 402 463 38,000  Level Chicago Center
Fri 09:04:10 PM 41.3217 -91.7453 234° Southwest 409 471 38,000  Level Chicago Center
Fri 09:05:12 PM 41.2550 -91.8653 234° Southwest 409 471 38,000  Level Chicago Center
Fri 09:06:15 PM 41.1886 -91.9817 233° Southwest 403 464 38,000  Level Chicago Center
Fri 09:07:17 PM 41.1108 -92.1211 234° Southwest 397 457 38,000  Level Chicago Center
Fri 09:08:19 PM 41.0458 -92.2364 233° Southwest 397 457 38,000  Level Chicago Center
Fri 09:09:21 PM 40.9800 -92.3528 233° Southwest 397 457 38,000  Level Chicago Center
Fri 09:10:23 PM 40.9131 -92.4669 232° Southwest 397 457 38,000  Level Chicago Center
Fri 09:11:25 PM 40.8472 -92.5842 233° Southwest 398 458 38,000  Level Chicago Center
Fri 09:12:27 PM 40.7672 -92.7231 233° Southwest 401 461 38,000  Level Chicago Center
Fri 09:13:29 PM 40.7028 -92.8367 233° Southwest 398 458 38,000  Level Chicago Center
Fri 09:14:31 PM 40.6369 -92.9494 232° Southwest 396 456 38,000  Level Chicago Center
Fri 09:15:20 PM 40.5853 -93.0381 233° Southwest 394 453 38,000  Level Kansas City Center
Fri 09:16:20 PM 40.5203 -93.1486 232° Southwest 387 445 38,000  Level Kansas City Center
Fri 09:17:21 PM 40.4411 -93.2842 233° Southwest 393 452 38,000  Level Kansas City Center
Fri 09:18:24 PM 40.3778 -93.3939 233° Southwest 389 448 38,000  Level Kansas City Center
Fri 09:19:26 PM 40.3128 -93.5069 233° Southwest 390 449 38,000  Level Kansas City Center
Fri 09:20:27 PM 40.2469 -93.6153 231° Southwest 390 449 38,000  Level Kansas City Center
Fri 09:21:30 PM 40.1833 -93.7242 233° Southwest 387 445 38,000  Level Kansas City Center
Fri 09:22:33 PM 40.1075 -93.8514 232° Southwest 380 437 38,000  Level Kansas City Center
Fri 09:23:34 PM 40.0431 -93.9583 232° Southwest 378 435 38,000  Level Kansas City Center
Fri 09:24:35 PM 39.9786 -94.0631 231° Southwest 377 434 38,000  Level Kansas City Center
Fri 09:25:39 PM 39.9086 -94.1767 231° Southwest 377 434 38,000  Level Kansas City Center
Fri 09:26:39 PM 39.8431 -94.2867 232° Southwest 384 442 38,000  Level Kansas City Center
Fri 09:27:40 PM 39.7769 -94.3961 232° Southwest 386 444 38,000  Level Kansas City Center
Fri 09:28:43 PM 39.7103 -94.5075 232° Southwest 389 448 38,000  Level Kansas City Center
Fri 09:29:44 PM 39.6428 -94.6186 232° Southwest 390 449 38,000  Level Kansas City Center
Fri 09:30:48 PM 39.5625 -94.7514 232° Southwest 392 451 38,000  Level Kansas City Center
Fri 09:31:49 PM 39.4953 -94.8617 232° Southwest 391 450 38,000  Level Kansas City Center
Fri 09:32:49 PM 39.4281 -94.9700 231° Southwest 389 448 38,000  Level Kansas City Center
Fri 09:33:53 PM 39.3597 -95.0794 231° Southwest 391 450 38,000  Level Kansas City Center
Fri 09:34:54 PM 39.2803 -95.2064 231° Southwest 394 453 38,000  Level Kansas City Center
Fri 09:35:55 PM 39.2147 -95.3125 231° Southwest 394 453 38,000  Level Kansas City Center
Fri 09:36:59 PM 39.1428 -95.4267 231° Southwest 393 452 38,000  Level Kansas City Center
Fri 09:38:00 PM 39.0778 -95.5322 232° Southwest 394 453 38,000  Level Kansas City Center
Fri 09:39:01 PM 39.0089 -95.6406 231° Southwest 394 453 38,000 -336 Level Kansas City Center
Fri 09:40:05 PM 38.9386 -95.7514 231° Southwest 396 456 37,300 -1,344 Descending Kansas City Center
Fri 09:41:06 PM 38.8472 -95.8942 231° Southwest 433 498 35,200 -1,884 Descending Kansas City Center
Fri 09:42:06 PM 38.7728 -96.0119 231° Southwest 427 491 33,500 -1,645 Descending Kansas City Center
Fri 09:43:10 PM 38.6989 -96.1308 231° Southwest 425 489 31,800 -1,619 Descending Kansas City Center
Fri 09:44:12 PM 38.6172 -96.2547 230° Southwest 450 518 30,100 -1,756 Descending Kansas City Center
Fri 09:45:13 PM 38.5367 -96.3811 231° Southwest 457 526 28,200 -2,016 Descending Kansas City Center
Fri 09:46:14 PM 38.4494 -96.5161 231° Southwest 457 526 26,000 -2,508 Descending Kansas City Center
Fri 09:47:15 PM 38.3714 -96.6367 230° Southwest 441 507 23,100 -2,832 Descending Kansas City Center
Fri 09:48:19 PM 38.2956 -96.7519 230° Southwest 429 494 20,100 -3,095 Descending Kansas City Center
Fri 09:48:50 PM 38.2469 -96.8269 230° Southwest 422 486 18,200 -2,806 Descending Kansas City Center
Fri 09:49:21 PM 38.2206 -96.8675 230° Southwest 425 489 17,200 -2,949 Descending Kansas City Center
Fri 09:49:49 PM 38.1703 -96.9433 230° Southwest 425 489 15,300 -3,000 Descending Kansas City Center
Fri 09:50:21 PM 38.1456 -96.9819 231° Southwest 425 489 14,200 -3,000 Descending Kansas City Center
Fri 09:50:51 PM 38.0975 -97.0536 230° Southwest 411 473 12,200 -2,754 Descending Kansas City Center
Fri 09:51:22 PM 38.0542 -97.0992 220° Southwest 388 447 11,400 -1,180 Descending Kansas City Center
Fri 09:51:52 PM 38.0208 -97.1297 216° Southwest 330 380 11,000 -1,452 Descending Kansas City Center
Fri 09:52:24 PM 37.9828 -97.1636 215° Southwest 313 360 9,900 -2,136 Descending Kansas City Center
Fri 09:52:51 PM 37.9453 -97.1947 213° Southwest 290 334 8,900 -1,967 Descending Kansas City Center
Fri 09:53:25 PM 37.9158 -97.2242 218° Southwest 300 345 7,900 -1,935 Descending Kansas City Center
Fri 09:53:53 PM 37.8839 -97.2522 215° Southwest 272 313 6,900 -1,875 Descending Kansas City Center
Fri 09:54:29 PM 37.8547 -97.2789 216° Southwest 272 313 5,900 -2,000 Descending Kansas City Center
Fri 09:54:53 PM 37.8222 -97.3094 217° Southwest 272 313 4,900 -1,905 Descending Kansas City Center
Fri 09:55:32 PM 37.7903 -97.3369 214° Southwest 278 320 3,900 -1,800 Descending Kansas City Center
Fri 09:55:53 PM 37.7603 -97.3642 216° Southwest 277 319 3,100 -1,100 Descending Kansas City Center
Fri 09:56:32 PM 37.7347 -97.3847 212° Southwest 253 291 2,800 -689 Descending Kansas City Center
Fri 09:56:54 PM 37.7131 -97.3953 201° Southwest 166 191 2,400 -787 Descending Kansas City Center
Fri 09:57:33 PM 37.6922 -97.4033 197° South 197 227 2,000 -700 Descending Kansas City Center
Fri 09:57:54 PM 37.6767 -97.4117 203° Southwest 114 131 1,700 -492 Descending Kansas City Center
Fri 09:58:34 PM 37.6536 -97.4217 199° South 164 189 1,500 -300 Descending Kansas City Center
Fri 10:00:00 PM 37.6499 -97.4331 212° Southwest  Level Estimated
Fri 10:07:00 PM 37.6499 -97.4331 North  Level Estimated
Fri 10:08:00 PM 37.6499 -97.4331 212° Southwest  Level Estimated

Login

Don't have an account? Register now (free) for customized features, flight alerts, and more!